createdAt,value
2023-05-19T00:01:55.435Z,22.60
2023-05-19T00:04:23.246Z,22.60
2023-05-19T00:06:54.207Z,22.60
2023-05-19T00:09:21.459Z,22.60
2023-05-19T00:11:48.553Z,22.60
2023-05-19T00:14:15.686Z,22.60
2023-05-19T00:16:42.947Z,22.60
2023-05-19T00:19:10.347Z,22.60
2023-05-19T00:21:39.047Z,22.60
2023-05-19T00:24:06.865Z,22.60
2023-05-19T00:26:33.820Z,22.60
2023-05-19T00:29:01.008Z,22.60
2023-05-19T00:31:28.960Z,22.60
2023-05-19T00:33:55.964Z,22.60
2023-05-19T00:36:23.153Z,22.50
2023-05-19T00:38:51.381Z,22.60
2023-05-19T00:41:18.452Z,22.50
2023-05-19T00:43:45.700Z,22.50
2023-05-19T00:46:12.739Z,22.50
2023-05-19T00:48:39.788Z,22.50
2023-05-19T00:51:07.169Z,22.50
2023-05-19T00:53:34.868Z,22.60
2023-05-19T00:56:03.075Z,22.50
2023-05-19T00:58:32.679Z,22.50
2023-05-19T01:01:03.672Z,22.50
2023-05-19T01:03:32.974Z,22.50
2023-05-19T01:06:04.923Z,22.50
2023-05-19T01:08:37.708Z,22.50
2023-05-19T01:11:06.715Z,22.50
2023-05-19T01:13:34.580Z,22.50
2023-05-19T01:16:13.142Z,22.50
2023-05-19T01:18:47.548Z,22.50
2023-05-19T01:21:36.553Z,22.50
2023-05-19T01:24:32.420Z,22.50
2023-05-19T01:27:17.947Z,22.50
2023-05-19T01:30:26.725Z,22.50
2023-05-19T01:32:57.279Z,22.50
2023-05-19T01:35:26.288Z,22.50
2023-05-19T01:37:57.190Z,22.50
2023-05-19T01:40:25.706Z,22.50
2023-05-19T01:42:59.158Z,22.50
2023-05-19T01:45:28.297Z,22.50
2023-05-19T01:47:57.591Z,22.50
2023-05-19T01:50:24.910Z,22.50
2023-05-19T01:52:52.412Z,22.50
2023-05-19T01:55:21.267Z,22.50
2023-05-19T01:57:51.132Z,22.50
2023-05-19T02:00:47.212Z,22.50
2023-05-19T02:03:32.698Z,22.50
2023-05-19T02:06:06.497Z,22.50
2023-05-19T02:08:55.650Z,22.50
2023-05-19T02:11:29.178Z,22.50
2023-05-19T02:14:00.169Z,22.40
2023-05-19T02:16:29.088Z,22.40
2023-05-19T02:18:56.613Z,22.40
2023-05-19T02:21:23.597Z,22.40
2023-05-19T02:23:51.224Z,22.40
2023-05-19T02:26:18.146Z,22.40
2023-05-19T02:28:45.084Z,22.40
2023-05-19T02:31:12.001Z,22.40
2023-05-19T02:33:38.894Z,22.40
2023-05-19T02:36:06.449Z,22.40
2023-05-19T02:38:33.540Z,22.40
2023-05-19T02:41:03.460Z,22.40
2023-05-19T02:43:30.685Z,22.40
2023-05-19T02:46:00.278Z,22.40
2023-05-19T02:48:27.445Z,22.40
2023-05-19T02:50:54.425Z,22.40
2023-05-19T02:53:21.322Z,22.40
2023-05-19T02:55:48.224Z,22.40
2023-05-19T02:58:15.191Z,22.40
2023-05-19T03:00:42.076Z,22.40
2023-05-19T03:03:10.559Z,22.40
2023-05-19T03:05:37.597Z,22.40
2023-05-19T03:08:04.722Z,22.40
2023-05-19T03:10:31.849Z,22.40
2023-05-19T03:12:58.916Z,22.40
2023-05-19T03:15:25.910Z,22.40
2023-05-19T03:17:52.959Z,22.40
2023-05-19T03:20:19.993Z,22.40
2023-05-19T03:22:46.990Z,22.40
2023-05-19T03:25:14.989Z,22.40
2023-05-19T03:27:41.898Z,22.40
2023-05-19T03:30:09.523Z,22.40
2023-05-19T03:32:38.074Z,22.40
2023-05-19T03:35:05.804Z,22.40
2023-05-19T03:37:32.806Z,22.40
2023-05-19T03:40:00.330Z,22.40
2023-05-19T03:42:27.232Z,22.40
2023-05-19T03:44:54.220Z,22.40
2023-05-19T03:47:21.135Z,22.40
2023-05-19T03:49:48.253Z,22.40
2023-05-19T03:52:15.772Z,22.40
2023-05-19T03:54:43.254Z,22.40
2023-05-19T03:57:11.246Z,22.40
2023-05-19T03:59:38.409Z,22.40
2023-05-19T04:02:05.613Z,22.40
2023-05-19T04:04:32.766Z,22.40
2023-05-19T04:06:59.908Z,22.40
2023-05-19T04:09:26.846Z,22.40
2023-05-19T04:11:53.797Z,22.40
2023-05-19T04:14:21.281Z,22.40
2023-05-19T04:16:48.265Z,22.40
2023-05-19T04:19:15.272Z,22.40
2023-05-19T04:21:42.243Z,22.50
2023-05-19T04:24:09.340Z,22.50
2023-05-19T04:26:38.425Z,22.50
2023-05-19T04:29:05.348Z,22.50
2023-05-19T04:31:34.436Z,22.50
2023-05-19T04:34:01.918Z,22.50
2023-05-19T04:36:28.793Z,22.50
2023-05-19T04:39:02.506Z,22.50
2023-05-19T04:41:29.575Z,22.50
2023-05-19T04:43:57.645Z,22.50
2023-05-19T04:46:26.203Z,22.50
2023-05-19T04:48:55.400Z,22.50
2023-05-19T04:51:22.386Z,22.50
2023-05-19T04:53:49.454Z,22.50
2023-05-19T04:56:16.505Z,22.60
2023-05-19T04:58:44.848Z,22.60
2023-05-19T05:01:13.969Z,22.60
2023-05-19T05:03:40.923Z,22.60
2023-05-19T05:06:08.914Z,22.70
2023-05-19T05:08:37.436Z,22.70
2023-05-19T05:11:04.619Z,22.70
2023-05-19T05:13:31.805Z,22.80
2023-05-19T05:15:59.418Z,22.80
2023-05-19T05:18:26.709Z,22.90
2023-05-19T05:20:53.873Z,23.00
2023-05-19T05:23:21.100Z,23.00
2023-05-19T05:25:48.314Z,23.10
2023-05-19T05:28:15.302Z,23.10
2023-05-19T05:30:42.250Z,23.10
2023-05-19T05:33:09.655Z,23.20
2023-05-19T05:35:36.842Z,23.30
2023-05-19T05:38:04.070Z,23.30
2023-05-19T05:40:31.072Z,23.30
2023-05-19T05:42:59.203Z,23.30
2023-05-19T05:45:26.473Z,23.40
2023-05-19T05:47:53.880Z,23.40
2023-05-19T05:50:22.220Z,23.50
2023-05-19T05:52:51.071Z,23.50
2023-05-19T05:55:18.414Z,23.60
2023-05-19T05:57:47.674Z,23.60
2023-05-19T06:00:17.654Z,23.60
2023-05-19T06:02:49.050Z,23.60
2023-05-19T06:05:16.653Z,23.60
2023-05-19T06:07:44.026Z,23.70
2023-05-19T06:10:12.512Z,23.70
2023-05-19T06:12:40.794Z,23.70
2023-05-19T06:15:08.270Z,23.70
2023-05-19T06:17:38.328Z,23.70
2023-05-19T06:20:06.381Z,23.80
2023-05-19T06:22:33.367Z,23.80
2023-05-19T06:25:00.337Z,23.80
2023-05-19T06:27:27.277Z,23.80
2023-05-19T06:29:54.349Z,23.90
2023-05-19T06:32:21.352Z,23.80
2023-05-19T06:34:54.321Z,23.90
2023-05-19T06:37:23.037Z,23.90
2023-05-19T06:39:52.462Z,23.90
2023-05-19T06:42:23.016Z,23.90
2023-05-19T06:44:50.657Z,23.90
2023-05-19T06:47:17.878Z,23.90
2023-05-19T06:49:45.904Z,23.90
2023-05-19T06:52:14.275Z,24.00
2023-05-19T06:54:41.183Z,24.00
2023-05-19T06:57:08.108Z,23.90
2023-05-19T06:59:35.041Z,23.90
2023-05-19T07:02:02.601Z,24.00
2023-05-19T07:04:29.587Z,24.00
2023-05-19T07:06:57.426Z,24.00
2023-05-19T07:09:24.431Z,24.00
2023-05-19T07:11:52.895Z,23.90
2023-05-19T07:14:20.994Z,23.80
2023-05-19T07:16:50.267Z,23.70
2023-05-19T07:19:19.728Z,23.60
2023-05-19T07:21:47.718Z,23.50
2023-05-19T07:24:14.665Z,23.40
2023-05-19T07:26:42.911Z,23.40
2023-05-19T07:29:09.866Z,23.30
2023-05-19T07:31:36.909Z,23.30
2023-05-19T07:34:05.310Z,23.20
2023-05-19T07:36:32.896Z,23.20
2023-05-19T07:38:59.878Z,23.20
2023-05-19T07:41:26.895Z,23.20
2023-05-19T07:43:54.915Z,23.10
2023-05-19T07:46:23.166Z,23.10
2023-05-19T07:48:50.148Z,23.10
2023-05-19T07:51:17.134Z,23.00
2023-05-19T07:53:44.129Z,23.00
2023-05-19T07:56:11.023Z,23.00
2023-05-19T07:58:38.044Z,22.90
2023-05-19T08:01:05.117Z,22.90
2023-05-19T08:03:32.166Z,22.90
2023-05-19T08:05:59.314Z,22.90
2023-05-19T08:08:27.028Z,22.90
2023-05-19T08:10:54.275Z,22.90
2023-05-19T08:13:21.930Z,22.90
2023-05-19T08:15:50.456Z,22.90
2023-05-19T08:18:17.387Z,22.90
2023-05-19T08:20:44.491Z,22.90
2023-05-19T08:23:12.402Z,23.00
2023-05-19T08:25:39.362Z,23.00
2023-05-19T08:28:06.569Z,23.00
2023-05-19T08:30:34.227Z,23.00
2023-05-19T08:33:02.328Z,23.00
2023-05-19T08:35:29.435Z,23.00
2023-05-19T08:37:56.494Z,23.00
2023-05-19T08:40:23.651Z,23.00
2023-05-19T08:42:50.770Z,23.00
2023-05-19T08:45:21.275Z,23.00
2023-05-19T08:47:52.453Z,23.00
2023-05-19T08:50:24.961Z,23.00
2023-05-19T08:53:01.665Z,23.00
2023-05-19T08:55:46.971Z,23.00
2023-05-19T08:58:15.731Z,23.00
2023-05-19T09:00:44.268Z,23.00
2023-05-19T09:05:44.642Z,23.00
2023-05-19T09:08:11.896Z,23.00
2023-05-19T09:10:40.129Z,23.00
2023-05-19T09:13:07.091Z,23.00
2023-05-19T09:15:36.915Z,22.90
2023-05-19T09:18:08.614Z,22.90
2023-05-19T09:20:40.851Z,22.90
2023-05-19T09:23:08.534Z,22.90
2023-05-19T09:25:35.650Z,22.90
2023-05-19T09:28:02.880Z,22.90
2023-05-19T09:30:30.141Z,22.90
2023-05-19T09:32:58.197Z,22.90
2023-05-19T09:35:25.168Z,22.90
2023-05-19T09:37:52.772Z,22.90
2023-05-19T09:40:19.919Z,22.90
2023-05-19T09:42:48.830Z,22.90
2023-05-19T09:45:16.550Z,23.00
2023-05-19T09:47:46.473Z,22.90
2023-05-19T09:50:14.322Z,22.90
2023-05-19T09:52:44.845Z,22.90
2023-05-19T09:55:14.510Z,22.90
2023-05-19T09:57:41.649Z,22.90
2023-05-19T10:00:14.545Z,22.90
2023-05-19T10:02:45.116Z,22.90
2023-05-19T10:05:23.182Z,22.90
2023-05-19T10:07:54.642Z,22.90
2023-05-19T10:10:22.573Z,22.90
2023-05-19T10:12:54.880Z,22.80
2023-05-19T10:15:23.197Z,22.80
2023-05-19T10:17:51.027Z,22.80
2023-05-19T10:20:19.591Z,22.80
2023-05-19T10:22:47.122Z,22.90
2023-05-19T10:25:18.711Z,22.90
2023-05-19T10:28:10.830Z,22.90
2023-05-19T10:30:41.059Z,22.90
2023-05-19T10:33:12.251Z,22.90
2023-05-19T10:36:08.450Z,22.90
2023-05-19T10:38:59.891Z,22.90
2023-05-19T10:41:52.130Z,22.90
2023-05-19T10:45:13.715Z,22.90
2023-05-19T10:47:42.140Z,22.90
2023-05-19T10:50:10.743Z,22.90
2023-05-19T10:52:39.361Z,22.90
2023-05-19T10:55:15.889Z,22.80
2023-05-19T10:57:58.076Z,22.80
2023-05-19T11:00:29.597Z,22.80
2023-05-19T11:03:13.861Z,22.80
2023-05-19T11:05:41.192Z,22.80
2023-05-19T11:08:08.628Z,22.80
2023-05-19T11:10:35.544Z,22.80
2023-05-19T11:13:06.374Z,22.90
2023-05-19T11:15:37.804Z,22.80
2023-05-19T11:18:06.228Z,22.80
2023-05-19T11:20:35.143Z,22.80
2023-05-19T11:23:18.697Z,22.80
2023-05-19T11:25:51.386Z,22.90
2023-05-19T11:28:20.193Z,22.80
2023-05-19T11:30:52.298Z,22.80
2023-05-19T11:33:20.747Z,22.90
2023-05-19T11:35:49.918Z,22.80
2023-05-19T11:38:21.184Z,22.90
2023-05-19T11:40:49.989Z,22.90
2023-05-19T11:43:16.957Z,22.80
2023-05-19T11:45:45.045Z,22.80
2023-05-19T11:48:13.039Z,22.80
2023-05-19T11:50:44.204Z,22.80
2023-05-19T11:53:15.150Z,22.80
2023-05-19T11:55:49.217Z,22.80
2023-05-19T11:58:17.324Z,22.80
2023-05-19T12:00:48.107Z,22.80
2023-05-19T12:03:15.574Z,22.80
2023-05-19T12:05:48.790Z,22.80
2023-05-19T12:08:19.400Z,22.80
2023-05-19T12:10:51.991Z,22.80
2023-05-19T12:13:19.685Z,22.80
2023-05-19T12:15:46.654Z,22.80
2023-05-19T12:18:13.679Z,22.80
2023-05-19T12:20:40.855Z,22.80
2023-05-19T12:23:07.904Z,22.80
2023-05-19T12:25:35.172Z,22.80
2023-05-19T12:28:05.564Z,22.80
2023-05-19T12:30:34.280Z,22.80
2023-05-19T12:33:02.965Z,22.80
2023-05-19T12:35:33.361Z,22.80
2023-05-19T12:38:06.802Z,22.80
2023-05-19T12:40:36.418Z,22.80
2023-05-19T12:43:04.124Z,22.80
2023-05-19T12:45:35.512Z,22.80
2023-05-19T12:48:12.552Z,22.80
2023-05-19T12:50:39.846Z,22.80
2023-05-19T12:53:16.901Z,22.80
2023-05-19T12:55:45.429Z,22.80
2023-05-19T12:58:13.181Z,22.80
2023-05-19T13:00:50.555Z,22.80
2023-05-19T13:03:23.327Z,22.80
2023-05-19T13:05:51.442Z,22.80
2023-05-19T13:08:21.846Z,22.80
2023-05-19T13:10:49.951Z,22.80
2023-05-19T13:13:17.574Z,22.80
2023-05-19T13:15:46.306Z,22.80
2023-05-19T13:18:14.597Z,22.80
2023-05-19T13:20:43.126Z,22.80
2023-05-19T13:23:14.379Z,22.80
2023-05-19T13:25:42.174Z,22.80
2023-05-19T13:28:09.859Z,22.80
2023-05-19T13:30:39.055Z,22.80
2023-05-19T13:33:06.580Z,22.80
2023-05-19T13:35:37.827Z,22.80
2023-05-19T13:38:10.241Z,22.80
2023-05-19T13:40:38.110Z,22.80
2023-05-19T13:43:05.267Z,22.80
2023-05-19T13:45:32.535Z,22.80
2023-05-19T13:47:59.726Z,22.80
2023-05-19T13:50:27.837Z,22.80
2023-05-19T13:52:55.091Z,22.80
2023-05-19T13:55:23.263Z,22.80
2023-05-19T13:57:53.238Z,22.80
2023-05-19T14:00:21.317Z,22.80
2023-05-19T14:02:48.523Z,22.80
2023-05-19T14:05:15.551Z,22.80
2023-05-19T14:07:42.737Z,22.80
2023-05-19T14:10:10.143Z,22.80
2023-05-19T14:12:54.877Z,22.80
2023-05-19T14:15:24.050Z,22.80
2023-05-19T14:17:53.504Z,22.70
2023-05-19T14:20:20.503Z,22.80
2023-05-19T14:22:47.480Z,22.70
2023-05-19T14:25:14.368Z,22.70
2023-05-19T14:27:42.827Z,22.80
2023-05-19T14:30:10.228Z,22.70
2023-05-19T14:32:37.383Z,22.70
2023-05-19T14:35:06.310Z,22.70
2023-05-19T14:37:33.654Z,22.70
2023-05-19T14:40:07.735Z,22.70
2023-05-19T14:42:37.910Z,22.70
2023-05-19T14:47:51.471Z,22.70
2023-05-19T14:50:18.579Z,22.70
2023-05-19T14:52:46.556Z,22.70
2023-05-19T14:55:13.478Z,22.70
2023-05-19T14:57:40.478Z,22.70
2023-05-19T15:00:10.234Z,22.70
2023-05-19T15:02:37.269Z,22.70
2023-05-19T15:05:04.627Z,22.70
2023-05-19T15:07:31.666Z,22.70
2023-05-19T15:09:58.619Z,22.70
2023-05-19T15:12:25.713Z,22.70
2023-05-19T15:14:52.715Z,22.70
2023-05-19T15:17:19.743Z,22.70
2023-05-19T15:19:46.781Z,22.70
2023-05-19T15:22:13.722Z,22.60
2023-05-19T15:24:41.356Z,22.60
2023-05-19T15:27:08.985Z,22.60
2023-05-19T15:29:36.078Z,22.60
2023-05-19T15:32:03.391Z,22.60
2023-05-19T15:34:30.299Z,22.60
2023-05-19T15:36:57.418Z,22.60
2023-05-19T15:39:24.424Z,22.60
2023-05-19T15:41:51.627Z,22.60
2023-05-19T15:44:18.601Z,22.60
2023-05-19T15:46:45.640Z,22.60
2023-05-19T15:49:13.136Z,22.60
2023-05-19T15:51:40.382Z,22.60
2023-05-19T15:54:07.304Z,22.60
2023-05-19T15:56:34.289Z,22.60
2023-05-19T15:59:01.411Z,22.60
2023-05-19T16:01:28.769Z,22.60
2023-05-19T16:03:55.863Z,22.60
2023-05-19T16:06:22.890Z,22.60
2023-05-19T16:08:49.788Z,22.60
2023-05-19T16:11:18.337Z,22.60
2023-05-19T16:13:45.298Z,22.60
2023-05-19T16:16:12.249Z,22.60
2023-05-19T16:18:39.368Z,22.60
2023-05-19T16:21:06.488Z,22.60
2023-05-19T16:23:33.522Z,22.60
2023-05-19T16:26:00.433Z,22.60
2023-05-19T16:28:28.089Z,22.50
2023-05-19T16:30:59.378Z,22.60
2023-05-19T16:33:28.139Z,22.50
2023-05-19T16:35:55.138Z,22.50
2023-05-19T16:38:22.108Z,22.50
2023-05-19T16:40:49.554Z,22.50
2023-05-19T16:43:16.447Z,22.50
2023-05-19T16:45:43.391Z,22.50
2023-05-19T16:48:10.579Z,22.50
2023-05-19T16:50:37.787Z,22.50
2023-05-19T16:53:04.862Z,22.50
2023-05-19T16:55:31.750Z,22.50
2023-05-19T16:57:59.433Z,22.50
2023-05-19T17:00:27.472Z,22.50
2023-05-19T17:02:54.516Z,22.50
2023-05-19T17:05:21.518Z,22.50
2023-05-19T17:07:48.860Z,22.50
2023-05-19T17:10:16.084Z,22.50
2023-05-19T17:12:43.134Z,22.50
2023-05-19T17:15:11.020Z,22.50
2023-05-19T17:17:38.004Z,22.50
2023-05-19T17:20:05.515Z,22.50
2023-05-19T17:22:32.572Z,22.50
2023-05-19T17:25:00.601Z,22.50
2023-05-19T17:27:27.533Z,22.50
2023-05-19T17:29:54.438Z,22.50
2023-05-19T17:32:25.936Z,22.50
2023-05-19T17:34:55.352Z,22.40
2023-05-19T17:37:25.802Z,22.40
2023-05-19T17:39:53.052Z,22.50
2023-05-19T17:42:20.419Z,22.40
2023-05-19T17:44:48.719Z,22.50
2023-05-19T17:47:15.771Z,22.40
2023-05-19T17:49:47.710Z,22.40
2023-05-19T17:52:16.037Z,22.40
2023-05-19T17:54:43.206Z,22.50
2023-05-19T17:57:14.813Z,22.40
2023-05-19T17:59:42.285Z,22.40
2023-05-19T18:02:10.533Z,22.40
2023-05-19T18:04:38.127Z,22.40
2023-05-19T18:07:07.087Z,22.40
2023-05-19T18:09:40.845Z,22.40
2023-05-19T18:12:08.304Z,22.40
2023-05-19T18:14:40.858Z,22.40
2023-05-19T18:17:08.028Z,22.40
2023-05-19T18:19:35.248Z,22.40
2023-05-19T18:22:02.377Z,22.40
2023-05-19T18:24:29.458Z,22.40
2023-05-19T18:26:56.709Z,22.40
2023-05-19T18:29:23.799Z,22.40
2023-05-19T18:31:50.855Z,22.30
2023-05-19T18:34:18.009Z,22.30
2023-05-19T18:36:46.291Z,22.30
2023-05-19T18:39:13.617Z,22.30
2023-05-19T18:41:42.908Z,22.30
2023-05-19T18:44:10.556Z,22.30
2023-05-19T18:46:38.724Z,22.30
2023-05-19T18:49:07.180Z,22.30
2023-05-19T18:51:36.316Z,22.30
2023-05-19T18:54:03.546Z,22.30
2023-05-19T18:56:31.308Z,22.30
2023-05-19T18:58:59.563Z,22.30
2023-05-19T19:01:26.823Z,22.30
2023-05-19T19:03:53.968Z,22.30
2023-05-19T19:06:23.463Z,22.30
2023-05-19T19:08:51.231Z,22.30
2023-05-19T19:11:18.475Z,22.30
2023-05-19T19:13:47.151Z,22.30
2023-05-19T19:16:15.349Z,22.20
2023-05-19T19:18:42.438Z,22.20
2023-05-19T19:21:09.907Z,22.20
2023-05-19T19:23:37.022Z,22.20
2023-05-19T19:26:04.715Z,22.20
2023-05-19T19:28:31.787Z,22.20
2023-05-19T19:30:58.986Z,22.20
2023-05-19T19:33:26.028Z,22.20
2023-05-19T19:35:53.061Z,22.20
2023-05-19T19:38:20.139Z,22.20
2023-05-19T19:40:47.074Z,22.20
2023-05-19T19:43:14.009Z,22.20
2023-05-19T19:45:42.348Z,22.20
2023-05-19T19:48:10.034Z,22.20
2023-05-19T19:50:37.064Z,22.20
2023-05-19T19:53:04.543Z,22.20
2023-05-19T19:55:31.821Z,22.30
2023-05-19T19:57:59.892Z,22.30
2023-05-19T20:00:26.864Z,22.30
2023-05-19T20:03:03.541Z,22.30
2023-05-19T20:05:31.920Z,22.30
2023-05-19T20:07:58.850Z,22.30
2023-05-19T20:10:26.958Z,22.30
2023-05-19T20:12:53.946Z,22.30
2023-05-19T20:15:20.961Z,22.30
2023-05-19T20:17:47.920Z,22.30
2023-05-19T20:20:14.926Z,22.30
2023-05-19T20:22:41.886Z,22.30
2023-05-19T20:25:11.470Z,22.30
2023-05-19T20:27:38.380Z,22.30
2023-05-19T20:30:05.936Z,22.30
2023-05-19T20:32:33.005Z,22.30
2023-05-19T20:35:02.206Z,22.30
2023-05-19T20:37:29.134Z,22.30
2023-05-19T20:39:56.081Z,22.30
2023-05-19T20:42:23.036Z,22.30
2023-05-19T20:44:50.007Z,22.30
2023-05-19T20:47:21.279Z,22.30
2023-05-19T20:49:51.228Z,22.30
2023-05-19T20:52:18.652Z,22.30
2023-05-19T20:54:46.513Z,22.30
2023-05-19T20:57:13.712Z,22.30
2023-05-19T20:59:43.279Z,22.30
2023-05-19T21:02:11.688Z,22.20
2023-05-19T21:04:39.291Z,22.30
2023-05-19T21:07:06.443Z,22.30
2023-05-19T21:09:33.403Z,22.20
2023-05-19T21:12:00.275Z,22.20
2023-05-19T21:14:27.206Z,22.20
2023-05-19T21:16:56.006Z,22.20
2023-05-19T21:19:23.361Z,22.20
2023-05-19T21:21:50.388Z,22.20
2023-05-19T21:24:17.530Z,22.20
2023-05-19T21:26:44.475Z,22.30
2023-05-19T21:29:11.443Z,22.20
2023-05-19T21:31:39.518Z,22.20
2023-05-19T21:36:36.996Z,22.30
2023-05-19T21:39:04.703Z,22.50
2023-05-19T21:41:33.949Z,22.50
2023-05-19T21:44:00.844Z,22.60
2023-05-19T21:46:29.162Z,22.60
2023-05-19T21:48:56.465Z,22.60
2023-05-19T21:51:23.381Z,22.60
2023-05-19T21:53:50.303Z,22.60
2023-05-19T21:56:18.334Z,22.60
2023-05-19T21:58:45.409Z,22.60
2023-05-19T22:01:13.315Z,22.60
2023-05-19T22:03:40.297Z,22.60
2023-05-19T22:06:09.288Z,22.60
2023-05-19T22:08:36.248Z,22.60
2023-05-19T22:11:03.317Z,22.60
2023-05-19T22:13:32.037Z,22.60
2023-05-19T22:15:59.159Z,22.60
2023-05-19T22:18:26.350Z,22.60
2023-05-19T22:20:53.220Z,22.60
2023-05-19T22:23:22.674Z,22.60
2023-05-19T22:25:49.584Z,22.60
2023-05-19T22:28:16.555Z,22.60
2023-05-19T22:30:44.242Z,22.60
2023-05-19T22:33:11.754Z,22.60
2023-05-19T22:35:39.037Z,22.60
2023-05-19T22:38:07.507Z,22.60
2023-05-19T22:40:37.106Z,22.60
2023-05-19T22:43:04.143Z,22.60
2023-05-19T22:45:31.899Z,22.60
2023-05-19T22:47:58.895Z,22.60
2023-05-19T22:50:25.849Z,22.60
2023-05-19T22:52:52.819Z,22.60
2023-05-19T22:55:19.838Z,22.60
2023-05-19T22:57:47.287Z,22.60
2023-05-19T23:00:14.654Z,22.60
2023-05-19T23:02:42.039Z,22.60
2023-05-19T23:05:09.223Z,22.60
2023-05-19T23:07:36.374Z,22.60
2023-05-19T23:10:04.431Z,22.60
2023-05-19T23:12:31.338Z,22.60
2023-05-19T23:14:58.374Z,22.60
2023-05-19T23:17:25.320Z,22.60
2023-05-19T23:19:52.340Z,22.60
2023-05-19T23:22:19.522Z,22.60
2023-05-19T23:24:46.602Z,22.60
2023-05-19T23:27:13.520Z,22.50
2023-05-19T23:29:40.415Z,22.60
2023-05-19T23:32:07.820Z,22.60
2023-05-19T23:34:36.029Z,22.60
2023-05-19T23:37:03.015Z,22.50
2023-05-19T23:39:29.935Z,22.60
2023-05-19T23:41:58.348Z,22.60
2023-05-19T23:44:27.021Z,22.60
2023-05-19T23:46:54.210Z,22.60
2023-05-19T23:49:21.131Z,22.60
2023-05-19T23:51:48.104Z,22.60
2023-05-19T23:54:16.138Z,22.60
2023-05-19T23:56:43.043Z,22.60
2023-05-19T23:59:09.897Z,22.60
